sensor_id;sensor_type;location;lat;lon;timestamp;pressure;altitude;pressure_sealevel;temperature;humidity
84024;BME280;74109;45.636;25.582;2024-03-07T00:00:45;94547.99;;;5.49;59.52
84024;BME280;74109;45.636;25.582;2024-03-07T00:03:30;94541.30;;;5.46;59.36
84024;BME280;74109;45.636;25.582;2024-03-07T00:05:57;94544.11;;;5.41;59.94
84024;BME280;74109;45.636;25.582;2024-03-07T00:08:24;94545.13;;;5.34;59.75
84024;BME280;74109;45.636;25.582;2024-03-07T00:10:50;94543.67;;;5.28;59.80
84024;BME280;74109;45.636;25.582;2024-03-07T00:13:17;94542.66;;;5.20;60.33
84024;BME280;74109;45.636;25.582;2024-03-07T00:15:44;94545.14;;;5.15;60.34
84024;BME280;74109;45.636;25.582;2024-03-07T00:18:11;94543.30;;;5.14;60.33
84024;BME280;74109;45.636;25.582;2024-03-07T00:20:38;94547.20;;;5.12;60.51
84024;BME280;74109;45.636;25.582;2024-03-07T00:23:05;94546.69;;;5.09;60.45
84024;BME280;74109;45.636;25.582;2024-03-07T00:25:33;94541.70;;;5.05;60.57
84024;BME280;74109;45.636;25.582;2024-03-07T00:27:59;94543.64;;;5.03;60.49
84024;BME280;74109;45.636;25.582;2024-03-07T00:30:29;94542.53;;;5.01;60.74
84024;BME280;74109;45.636;25.582;2024-03-07T00:32:57;94541.95;;;5.00;60.22
84024;BME280;74109;45.636;25.582;2024-03-07T00:35:24;94542.44;;;4.98;60.71
84024;BME280;74109;45.636;25.582;2024-03-07T00:37:51;94540.78;;;4.95;60.94
84024;BME280;74109;45.636;25.582;2024-03-07T00:40:18;94544.84;;;4.92;61.14
84024;BME280;74109;45.636;25.582;2024-03-07T00:42:45;94540.24;;;4.91;60.66
84024;BME280;74109;45.636;25.582;2024-03-07T00:45:12;94540.66;;;4.89;60.79
84024;BME280;74109;45.636;25.582;2024-03-07T00:47:39;94540.67;;;4.88;60.84
84024;BME280;74109;45.636;25.582;2024-03-07T00:50:06;94539.08;;;4.86;60.80
84024;BME280;74109;45.636;25.582;2024-03-07T00:52:35;94535.95;;;4.84;60.87
84024;BME280;74109;45.636;25.582;2024-03-07T00:55:02;94534.35;;;4.82;60.68
84024;BME280;74109;45.636;25.582;2024-03-07T00:57:29;94539.27;;;4.81;60.46
84024;BME280;74109;45.636;25.582;2024-03-07T00:59:56;94537.98;;;4.79;60.02
84024;BME280;74109;45.636;25.582;2024-03-07T01:02:23;94535.05;;;4.77;60.61
84024;BME280;74109;45.636;25.582;2024-03-07T01:04:50;94533.34;;;4.75;60.68
84024;BME280;74109;45.636;25.582;2024-03-07T01:07:20;94531.34;;;4.73;60.63
84024;BME280;74109;45.636;25.582;2024-03-07T01:09:48;94530.77;;;4.71;60.71
84024;BME280;74109;45.636;25.582;2024-03-07T01:12:15;94530.73;;;4.69;60.81
84024;BME280;74109;45.636;25.582;2024-03-07T01:14:42;94528.45;;;4.67;60.35
84024;BME280;74109;45.636;25.582;2024-03-07T01:17:12;94530.33;;;4.65;60.41
84024;BME280;74109;45.636;25.582;2024-03-07T01:19:39;94526.90;;;4.64;59.91
84024;BME280;74109;45.636;25.582;2024-03-07T01:22:08;94528.39;;;4.65;60.50
84024;BME280;74109;45.636;25.582;2024-03-07T01:24:35;94525.38;;;4.63;60.25
84024;BME280;74109;45.636;25.582;2024-03-07T01:27:02;94527.98;;;4.63;60.09
84024;BME280;74109;45.636;25.582;2024-03-07T01:29:29;94525.60;;;4.64;60.42
84024;BME280;74109;45.636;25.582;2024-03-07T01:31:56;94526.50;;;4.65;60.64
84024;BME280;74109;45.636;25.582;2024-03-07T01:34:23;94526.84;;;4.66;60.73
84024;BME280;74109;45.636;25.582;2024-03-07T01:36:50;94524.79;;;4.64;60.81
84024;BME280;74109;45.636;25.582;2024-03-07T01:39:17;94524.78;;;4.60;60.71
84024;BME280;74109;45.636;25.582;2024-03-07T01:41:44;94525.66;;;4.59;60.82
84024;BME280;74109;45.636;25.582;2024-03-07T01:44:11;94525.30;;;4.53;61.50
84024;BME280;74109;45.636;25.582;2024-03-07T01:46:38;94526.25;;;4.46;61.18
84024;BME280;74109;45.636;25.582;2024-03-07T01:49:05;94523.38;;;4.41;61.26
84024;BME280;74109;45.636;25.582;2024-03-07T01:51:35;94523.23;;;4.38;60.73
84024;BME280;74109;45.636;25.582;2024-03-07T01:54:03;94525.13;;;4.36;61.14
84024;BME280;74109;45.636;25.582;2024-03-07T01:56:30;94525.44;;;4.33;61.09
84024;BME280;74109;45.636;25.582;2024-03-07T01:58:58;94525.55;;;4.26;61.89
84024;BME280;74109;45.636;25.582;2024-03-07T02:01:28;94523.11;;;4.19;61.33
84024;BME280;74109;45.636;25.582;2024-03-07T02:03:55;94519.97;;;4.12;62.15
84024;BME280;74109;45.636;25.582;2024-03-07T02:06:23;94518.83;;;4.05;62.04
84024;BME280;74109;45.636;25.582;2024-03-07T02:08:50;94523.77;;;3.99;62.66
84024;BME280;74109;45.636;25.582;2024-03-07T02:11:17;94523.07;;;3.87;63.48
84024;BME280;74109;45.636;25.582;2024-03-07T02:13:44;94524.87;;;3.82;63.34
84024;BME280;74109;45.636;25.582;2024-03-07T02:16:11;94529.29;;;3.82;62.32
84024;BME280;74109;45.636;25.582;2024-03-07T02:18:38;94528.52;;;3.84;62.62
84024;BME280;74109;45.636;25.582;2024-03-07T02:21:08;94520.55;;;3.85;62.95
84024;BME280;74109;45.636;25.582;2024-03-07T02:23:38;94523.83;;;3.84;62.77
84024;BME280;74109;45.636;25.582;2024-03-07T02:26:04;94531.56;;;3.78;63.01
84024;BME280;74109;45.636;25.582;2024-03-07T02:28:31;94531.29;;;3.69;63.48
84024;BME280;74109;45.636;25.582;2024-03-07T02:30:58;94533.71;;;3.63;63.56
84024;BME280;74109;45.636;25.582;2024-03-07T02:33:25;94537.07;;;3.56;63.76
84024;BME280;74109;45.636;25.582;2024-03-07T02:35:52;94539.14;;;3.53;63.51
84024;BME280;74109;45.636;25.582;2024-03-07T02:38:19;94537.43;;;3.49;63.64
84024;BME280;74109;45.636;25.582;2024-03-07T02:40:46;94540.51;;;3.43;64.15
84024;BME280;74109;45.636;25.582;2024-03-07T02:43:13;94539.67;;;3.39;64.75
84024;BME280;74109;45.636;25.582;2024-03-07T02:45:42;94541.17;;;3.39;63.83
84024;BME280;74109;45.636;25.582;2024-03-07T02:48:09;94541.26;;;3.44;63.51
84024;BME280;74109;45.636;25.582;2024-03-07T02:50:36;94541.85;;;3.48;63.86
84024;BME280;74109;45.636;25.582;2024-03-07T02:53:08;94543.91;;;3.53;63.63
84024;BME280;74109;45.636;25.582;2024-03-07T02:55:35;94546.83;;;3.57;63.29
84024;BME280;74109;45.636;25.582;2024-03-07T02:58:02;94544.80;;;3.60;62.81
84024;BME280;74109;45.636;25.582;2024-03-07T03:00:29;94540.48;;;3.63;63.01
84024;BME280;74109;45.636;25.582;2024-03-07T03:02:58;94541.80;;;3.65;63.01
84024;BME280;74109;45.636;25.582;2024-03-07T03:05:25;94545.88;;;3.63;63.28
84024;BME280;74109;45.636;25.582;2024-03-07T03:07:52;94552.34;;;3.64;63.01
84024;BME280;74109;45.636;25.582;2024-03-07T03:10:26;94550.92;;;3.63;62.95
84024;BME280;74109;45.636;25.582;2024-03-07T03:12:56;94550.84;;;3.63;63.56
84024;BME280;74109;45.636;25.582;2024-03-07T03:15:25;94546.98;;;3.63;63.17
84024;BME280;74109;45.636;25.582;2024-03-07T03:17:52;94549.82;;;3.63;62.96
84024;BME280;74109;45.636;25.582;2024-03-07T03:20:19;94548.71;;;3.64;63.19
84024;BME280;74109;45.636;25.582;2024-03-07T03:22:53;94551.45;;;3.63;63.03
84024;BME280;74109;45.636;25.582;2024-03-07T03:25:40;94548.81;;;3.62;63.09
84024;BME280;74109;45.636;25.582;2024-03-07T03:28:08;94550.70;;;3.61;63.15
84024;BME280;74109;45.636;25.582;2024-03-07T03:30:41;94550.94;;;3.62;63.02
84024;BME280;74109;45.636;25.582;2024-03-07T03:33:08;94544.49;;;3.62;63.03
84024;BME280;74109;45.636;25.582;2024-03-07T03:35:35;94543.79;;;3.64;63.08
84024;BME280;74109;45.636;25.582;2024-03-07T03:38:02;94546.96;;;3.67;62.98
84024;BME280;74109;45.636;25.582;2024-03-07T03:40:29;94546.15;;;3.68;62.87
84024;BME280;74109;45.636;25.582;2024-03-07T03:42:56;94546.70;;;3.69;62.56
84024;BME280;74109;45.636;25.582;2024-03-07T03:45:23;94547.61;;;3.68;62.53
84024;BME280;74109;45.636;25.582;2024-03-07T03:47:52;94547.89;;;3.69;62.51
84024;BME280;74109;45.636;25.582;2024-03-07T03:50:19;94549.04;;;3.68;62.37
84024;BME280;74109;45.636;25.582;2024-03-07T03:52:47;94547.55;;;3.66;62.87
84024;BME280;74109;45.636;25.582;2024-03-07T03:55:14;94550.55;;;3.66;62.99
84024;BME280;74109;45.636;25.582;2024-03-07T03:57:42;94551.86;;;3.65;62.65
84024;BME280;74109;45.636;25.582;2024-03-07T04:00:10;94553.13;;;3.64;63.10
84024;BME280;74109;45.636;25.582;2024-03-07T04:02:41;94551.18;;;3.66;62.26
84024;BME280;74109;45.636;25.582;2024-03-07T04:05:11;94553.29;;;3.68;62.49
84024;BME280;74109;45.636;25.582;2024-03-07T04:07:40;94553.34;;;3.71;62.24
84024;BME280;74109;45.636;25.582;2024-03-07T04:10:11;94550.06;;;3.73;62.71
84024;BME280;74109;45.636;25.582;2024-03-07T04:12:39;94551.44;;;3.73;62.68
84024;BME280;74109;45.636;25.582;2024-03-07T04:15:12;94552.47;;;3.71;62.91
84024;BME280;74109;45.636;25.582;2024-03-07T04:17:40;94555.22;;;3.72;62.51
84024;BME280;74109;45.636;25.582;2024-03-07T04:20:07;94555.02;;;3.74;62.48
84024;BME280;74109;45.636;25.582;2024-03-07T04:22:37;94551.14;;;3.75;62.71
84024;BME280;74109;45.636;25.582;2024-03-07T04:25:08;94552.20;;;3.77;62.63
84024;BME280;74109;45.636;25.582;2024-03-07T04:27:36;94553.63;;;3.81;62.32
84024;BME280;74109;45.636;25.582;2024-03-07T04:30:04;94554.35;;;3.83;62.20
84024;BME280;74109;45.636;25.582;2024-03-07T04:32:32;94552.77;;;3.84;61.95
84024;BME280;74109;45.636;25.582;2024-03-07T04:35:01;94557.50;;;3.80;62.39
84024;BME280;74109;45.636;25.582;2024-03-07T04:37:30;94562.51;;;3.73;62.30
84024;BME280;74109;45.636;25.582;2024-03-07T04:39:57;94566.70;;;3.67;62.52
84024;BME280;74109;45.636;25.582;2024-03-07T04:42:24;94566.90;;;3.62;62.62
84024;BME280;74109;45.636;25.582;2024-03-07T04:44:50;94572.32;;;3.59;62.60
84024;BME280;74109;45.636;25.582;2024-03-07T04:47:18;94568.44;;;3.55;62.92
84024;BME280;74109;45.636;25.582;2024-03-07T04:49:45;94571.77;;;3.52;63.14
84024;BME280;74109;45.636;25.582;2024-03-07T04:52:12;94573.02;;;3.49;62.92
84024;BME280;74109;45.636;25.582;2024-03-07T04:54:39;94577.75;;;3.48;62.75
84024;BME280;74109;45.636;25.582;2024-03-07T04:57:05;94579.38;;;3.45;63.34
84024;BME280;74109;45.636;25.582;2024-03-07T04:59:32;94575.25;;;3.45;63.11
84024;BME280;74109;45.636;25.582;2024-03-07T05:01:59;94572.85;;;3.50;62.72
84024;BME280;74109;45.636;25.582;2024-03-07T05:04:26;94574.23;;;3.57;62.84
84024;BME280;74109;45.636;25.582;2024-03-07T05:06:55;94575.83;;;3.64;62.64
84024;BME280;74109;45.636;25.582;2024-03-07T05:09:24;94574.95;;;3.71;62.55
84024;BME280;74109;45.636;25.582;2024-03-07T05:11:52;94580.45;;;3.75;62.24
84024;BME280;74109;45.636;25.582;2024-03-07T05:14:20;94580.27;;;3.78;62.26
84024;BME280;74109;45.636;25.582;2024-03-07T05:16:47;94581.66;;;3.81;62.05
84024;BME280;74109;45.636;25.582;2024-03-07T05:19:32;94586.23;;;3.81;62.22
84024;BME280;74109;45.636;25.582;2024-03-07T05:22:00;94586.13;;;3.79;61.91
84024;BME280;74109;45.636;25.582;2024-03-07T05:24:27;94586.41;;;3.77;62.01
84024;BME280;74109;45.636;25.582;2024-03-07T05:26:53;94588.16;;;3.74;62.12
84024;BME280;74109;45.636;25.582;2024-03-07T05:29:21;94591.34;;;3.72;62.24
84024;BME280;74109;45.636;25.582;2024-03-07T05:31:48;94592.05;;;3.72;62.18
84024;BME280;74109;45.636;25.582;2024-03-07T05:34:16;94595.86;;;3.74;62.09
84024;BME280;74109;45.636;25.582;2024-03-07T05:36:46;94594.56;;;3.78;61.92
84024;BME280;74109;45.636;25.582;2024-03-07T05:39:14;94595.45;;;3.84;61.97
84024;BME280;74109;45.636;25.582;2024-03-07T05:41:45;94598.56;;;3.87;61.81
84024;BME280;74109;45.636;25.582;2024-03-07T05:44:19;94599.84;;;3.90;61.99
84024;BME280;74109;45.636;25.582;2024-03-07T05:46:52;94600.10;;;3.97;61.62
84024;BME280;74109;45.636;25.582;2024-03-07T05:49:19;94603.45;;;4.04;61.41
84024;BME280;74109;45.636;25.582;2024-03-07T05:51:53;94605.13;;;4.13;61.45
84024;BME280;74109;45.636;25.582;2024-03-07T05:54:20;94607.65;;;4.24;61.09
84024;BME280;74109;45.636;25.582;2024-03-07T05:56:58;94606.75;;;4.34;60.93
84024;BME280;74109;45.636;25.582;2024-03-07T06:04:32;94614.28;;;4.67;60.12
84024;BME280;74109;45.636;25.582;2024-03-07T06:07:21;94616.67;;;4.80;59.98
84024;BME280;74109;45.636;25.582;2024-03-07T06:10:18;94615.39;;;4.90;59.71
84024;BME280;74109;45.636;25.582;2024-03-07T06:14:13;94617.73;;;5.02;59.30
84024;BME280;74109;45.636;25.582;2024-03-07T06:18:33;94619.73;;;5.19;59.19
84024;BME280;74109;45.636;25.582;2024-03-07T06:21:53;94624.98;;;5.35;58.81
84024;BME280;74109;45.636;25.582;2024-03-07T06:26:02;94627.16;;;5.61;58.78
84024;BME280;74109;45.636;25.582;2024-03-07T06:29:25;94630.06;;;5.86;58.31
84024;BME280;74109;45.636;25.582;2024-03-07T06:32:16;94626.45;;;6.06;57.84
84024;BME280;74109;45.636;25.582;2024-03-07T06:34:52;94628.30;;;6.24;57.46
84024;BME280;74109;45.636;25.582;2024-03-07T06:37:41;94630.06;;;6.45;56.73
84024;BME280;74109;45.636;25.582;2024-03-07T06:40:40;94632.11;;;6.63;56.27
84024;BME280;74109;45.636;25.582;2024-03-07T06:43:10;94627.13;;;6.78;55.35
84024;BME280;74109;45.636;25.582;2024-03-07T06:45:42;94629.09;;;6.96;54.97
84024;BME280;74109;45.636;25.582;2024-03-07T06:48:17;94630.56;;;7.12;54.30
84024;BME280;74109;45.636;25.582;2024-03-07T06:50:49;94632.13;;;7.29;53.49
84024;BME280;74109;45.636;25.582;2024-03-07T06:53:21;94636.27;;;7.46;53.00
84024;BME280;74109;45.636;25.582;2024-03-07T06:56:02;94636.15;;;7.63;50.94
84024;BME280;74109;45.636;25.582;2024-03-07T07:02:11;94634.59;;;8.06;49.33
84024;BME280;74109;45.636;25.582;2024-03-07T07:05:15;94633.52;;;8.41;49.48
84024;BME280;74109;45.636;25.582;2024-03-07T07:11:35;94631.55;;;9.12;46.28
84024;BME280;74109;45.636;25.582;2024-03-07T07:14:35;94636.98;;;9.58;45.07
84024;BME280;74109;45.636;25.582;2024-03-07T07:17:26;94641.63;;;10.07;43.80
84024;BME280;74109;45.636;25.582;2024-03-07T07:19:57;94640.02;;;10.50;43.22
84024;BME280;74109;45.636;25.582;2024-03-07T07:22:50;94642.14;;;10.92;41.85
84024;BME280;74109;45.636;25.582;2024-03-07T07:25:34;94643.92;;;11.37;40.47
84024;BME280;74109;45.636;25.582;2024-03-07T07:28:06;94643.58;;;11.86;39.47
84024;BME280;74109;45.636;25.582;2024-03-07T07:30:36;94645.45;;;12.44;38.13
84024;BME280;74109;45.636;25.582;2024-03-07T07:33:07;94646.23;;;13.09;36.49
84024;BME280;74109;45.636;25.582;2024-03-07T07:35:44;94645.33;;;13.72;35.43
84024;BME280;74109;45.636;25.582;2024-03-07T07:39:14;94647.88;;;14.52;33.98
84024;BME280;74109;45.636;25.582;2024-03-07T07:42:08;94646.64;;;15.06;32.95
84024;BME280;74109;45.636;25.582;2024-03-07T07:48:19;94640.95;;;15.82;32.20
84024;BME280;74109;45.636;25.582;2024-03-07T07:51:19;94643.34;;;16.06;31.41
84024;BME280;74109;45.636;25.582;2024-03-07T07:54:13;94648.33;;;16.37;30.85
84024;BME280;74109;45.636;25.582;2024-03-07T07:57:28;94645.83;;;16.90;30.29
84024;BME280;74109;45.636;25.582;2024-03-07T08:00:33;94652.39;;;17.32;28.72
84024;BME280;74109;45.636;25.582;2024-03-07T08:03:23;94645.74;;;17.65;28.22
84024;BME280;74109;45.636;25.582;2024-03-07T08:06:10;94648.00;;;17.93;27.87
84024;BME280;74109;45.636;25.582;2024-03-07T08:08:44;94644.98;;;18.25;26.61
84024;BME280;74109;45.636;25.582;2024-03-07T08:11:28;94647.61;;;18.55;27.21
84024;BME280;74109;45.636;25.582;2024-03-07T08:14:10;94645.14;;;18.62;26.59
84024;BME280;74109;45.636;25.582;2024-03-07T08:16:53;94647.48;;;18.89;26.92
84024;BME280;74109;45.636;25.582;2024-03-07T08:19:42;94646.48;;;19.13;26.45
84024;BME280;74109;45.636;25.582;2024-03-07T08:22:39;94643.48;;;19.19;25.48
84024;BME280;74109;45.636;25.582;2024-03-07T08:25:35;94643.61;;;19.18;25.28
84024;BME280;74109;45.636;25.582;2024-03-07T08:28:11;94644.54;;;19.19;25.66
84024;BME280;74109;45.636;25.582;2024-03-07T08:30:51;94643.14;;;19.06;25.59
84024;BME280;74109;45.636;25.582;2024-03-07T08:33:24;94645.34;;;18.75;26.46
84024;BME280;74109;45.636;25.582;2024-03-07T08:36:01;94645.09;;;18.12;26.60
84024;BME280;74109;45.636;25.582;2024-03-07T08:38:31;94645.77;;;17.58;26.88
84024;BME280;74109;45.636;25.582;2024-03-07T08:41:02;94651.23;;;17.04;27.93
84024;BME280;74109;45.636;25.582;2024-03-07T08:43:33;94654.58;;;16.63;28.40
84024;BME280;74109;45.636;25.582;2024-03-07T08:46:04;94653.69;;;16.21;29.44
84024;BME280;74109;45.636;25.582;2024-03-07T08:48:35;94654.84;;;15.86;30.06
84024;BME280;74109;45.636;25.582;2024-03-07T08:51:17;94658.02;;;15.61;30.49
84024;BME280;74109;45.636;25.582;2024-03-07T08:54:07;94655.38;;;15.40;30.74
84024;BME280;74109;45.636;25.582;2024-03-07T08:57:02;94659.06;;;15.27;31.16
84024;BME280;74109;45.636;25.582;2024-03-07T09:00:32;94658.42;;;14.87;31.45
84024;BME280;74109;45.636;25.582;2024-03-07T09:04:52;94657.08;;;14.41;32.85
84024;BME280;74109;45.636;25.582;2024-03-07T09:08:33;94659.77;;;14.18;33.05
84024;BME280;74109;45.636;25.582;2024-03-07T09:17:00;94664.51;;;14.10;33.15
84024;BME280;74109;45.636;25.582;2024-03-07T09:20:43;94665.55;;;14.00;33.04
84024;BME280;74109;45.636;25.582;2024-03-07T09:24:19;94668.20;;;13.81;33.50
84024;BME280;74109;45.636;25.582;2024-03-07T09:27:58;94663.55;;;13.74;33.42
84024;BME280;74109;45.636;25.582;2024-03-07T09:31:18;94659.65;;;13.63;33.22
84024;BME280;74109;45.636;25.582;2024-03-07T09:45:05;94656.29;;;14.80;31.33
84024;BME280;74109;45.636;25.582;2024-03-07T09:48:33;94660.37;;;15.02;30.86
84024;BME280;74109;45.636;25.582;2024-03-07T09:51:32;94657.44;;;14.97;30.64
84024;BME280;74109;45.636;25.582;2024-03-07T09:55:02;94656.08;;;14.97;30.91
84024;BME280;74109;45.636;25.582;2024-03-07T09:59:00;94652.25;;;15.15;30.59
84024;BME280;74109;45.636;25.582;2024-03-07T10:26:06;94652.27;;;13.59;32.42
84024;BME280;74109;45.636;25.582;2024-03-07T10:30:05;94647.83;;;13.82;32.35
84024;BME280;74109;45.636;25.582;2024-03-07T10:33:37;94647.91;;;13.54;32.38
84024;BME280;74109;45.636;25.582;2024-03-07T10:40:56;94646.34;;;13.32;33.03
84024;BME280;74109;45.636;25.582;2024-03-07T10:44:56;94647.33;;;13.30;33.25
84024;BME280;74109;45.636;25.582;2024-03-07T10:48:39;94642.14;;;13.26;32.79
84024;BME280;74109;45.636;25.582;2024-03-07T10:51:47;94645.79;;;13.39;32.50
84024;BME280;74109;45.636;25.582;2024-03-07T11:01:13;94644.90;;;13.24;32.61
84024;BME280;74109;45.636;25.582;2024-03-07T11:04:55;94656.85;;;13.13;32.04
84024;BME280;74109;45.636;25.582;2024-03-07T11:07:58;94651.29;;;12.98;31.48
84024;BME280;74109;45.636;25.582;2024-03-07T11:10:55;94650.89;;;12.83;31.48
84024;BME280;74109;45.636;25.582;2024-03-07T11:13:25;94651.00;;;12.82;31.69
84024;BME280;74109;45.636;25.582;2024-03-07T11:15:56;94652.19;;;12.83;31.20
84024;BME280;74109;45.636;25.582;2024-03-07T11:19:28;94659.50;;;12.45;30.92
84024;BME280;74109;45.636;25.582;2024-03-07T11:23:44;94652.06;;;11.90;31.76
84024;BME280;74109;45.636;25.582;2024-03-07T11:26:11;94654.67;;;11.74;32.27
84024;BME280;74109;45.636;25.582;2024-03-07T11:28:44;94651.02;;;11.70;32.99
84024;BME280;74109;45.636;25.582;2024-03-07T11:31:28;94653.31;;;11.73;32.56
84024;BME280;74109;45.636;25.582;2024-03-07T11:38:01;94653.83;;;11.71;32.74
84024;BME280;74109;45.636;25.582;2024-03-07T11:43:01;94651.05;;;11.58;32.42
84024;BME280;74109;45.636;25.582;2024-03-07T11:45:34;94654.66;;;11.50;32.84
84024;BME280;74109;45.636;25.582;2024-03-07T11:48:06;94656.62;;;11.43;32.65
84024;BME280;74109;45.636;25.582;2024-03-07T11:50:39;94655.20;;;11.32;32.87
84024;BME280;74109;45.636;25.582;2024-03-07T11:53:12;94653.80;;;11.15;33.00
84024;BME280;74109;45.636;25.582;2024-03-07T11:55:41;94654.79;;;11.07;33.34
84024;BME280;74109;45.636;25.582;2024-03-07T11:58:15;94656.92;;;10.92;33.34
84024;BME280;74109;45.636;25.582;2024-03-07T12:00:51;94652.65;;;10.94;33.49
84024;BME280;74109;45.636;25.582;2024-03-07T12:03:21;94649.09;;;10.92;34.01
84024;BME280;74109;45.636;25.582;2024-03-07T12:05:52;94649.14;;;10.89;33.61
84024;BME280;74109;45.636;25.582;2024-03-07T12:08:26;94640.48;;;10.90;33.50
84024;BME280;74109;45.636;25.582;2024-03-07T12:10:56;94642.33;;;10.86;33.82
84024;BME280;74109;45.636;25.582;2024-03-07T12:13:26;94642.72;;;10.66;34.12
84024;BME280;74109;45.636;25.582;2024-03-07T12:15:57;94645.67;;;10.65;33.53
84024;BME280;74109;45.636;25.582;2024-03-07T12:18:27;94640.80;;;10.66;33.68
84024;BME280;74109;45.636;25.582;2024-03-07T12:20:56;94639.41;;;10.75;34.20
84024;BME280;74109;45.636;25.582;2024-03-07T12:23:37;94638.86;;;10.88;34.27
84024;BME280;74109;45.636;25.582;2024-03-07T12:26:09;94643.12;;;10.97;33.81
84024;BME280;74109;45.636;25.582;2024-03-07T12:28:43;94645.84;;;10.85;33.43
84024;BME280;74109;45.636;25.582;2024-03-07T12:31:13;94645.71;;;10.72;33.81
84024;BME280;74109;45.636;25.582;2024-03-07T12:33:45;94645.15;;;10.64;33.36
84024;BME280;74109;45.636;25.582;2024-03-07T12:36:20;94636.17;;;10.49;33.81
84024;BME280;74109;45.636;25.582;2024-03-07T12:38:54;94635.69;;;10.53;34.34
84024;BME280;74109;45.636;25.582;2024-03-07T12:41:24;94634.93;;;10.64;34.22
84024;BME280;74109;45.636;25.582;2024-03-07T12:43:53;94639.66;;;10.73;33.92
84024;BME280;74109;45.636;25.582;2024-03-07T12:46:22;94637.69;;;10.72;33.38
84024;BME280;74109;45.636;25.582;2024-03-07T12:48:50;94638.31;;;10.74;33.65
84024;BME280;74109;45.636;25.582;2024-03-07T12:51:19;94639.46;;;10.75;33.83
84024;BME280;74109;45.636;25.582;2024-03-07T12:53:53;94639.75;;;10.80;33.69
84024;BME280;74109;45.636;25.582;2024-03-07T12:56:22;94631.78;;;10.73;33.82
84024;BME280;74109;45.636;25.582;2024-03-07T12:58:51;94629.86;;;10.58;33.43
84024;BME280;74109;45.636;25.582;2024-03-07T13:01:52;94629.42;;;10.47;33.86
84024;BME280;74109;45.636;25.582;2024-03-07T13:04:23;94638.93;;;10.44;34.12
84024;BME280;74109;45.636;25.582;2024-03-07T13:06:53;94638.27;;;10.40;34.37
84024;BME280;74109;45.636;25.582;2024-03-07T13:09:22;94640.74;;;10.30;34.09
84024;BME280;74109;45.636;25.582;2024-03-07T13:12:09;94643.39;;;10.19;34.34
84024;BME280;74109;45.636;25.582;2024-03-07T13:14:43;94645.02;;;10.11;34.37
84024;BME280;74109;45.636;25.582;2024-03-07T13:17:48;94645.02;;;10.01;34.34
84024;BME280;74109;45.636;25.582;2024-03-07T13:20:22;94641.44;;;9.94;34.48
84024;BME280;74109;45.636;25.582;2024-03-07T13:22:54;94641.15;;;9.93;35.08
84024;BME280;74109;45.636;25.582;2024-03-07T13:25:29;94647.31;;;9.91;34.54
84024;BME280;74109;45.636;25.582;2024-03-07T13:28:11;94646.74;;;9.86;34.59
84024;BME280;74109;45.636;25.582;2024-03-07T13:30:47;94645.20;;;9.83;34.74
84024;BME280;74109;45.636;25.582;2024-03-07T13:33:18;94648.34;;;9.85;35.07
84024;BME280;74109;45.636;25.582;2024-03-07T13:35:49;94649.02;;;9.86;34.80
84024;BME280;74109;45.636;25.582;2024-03-07T13:38:20;94651.66;;;9.76;34.94
84024;BME280;74109;45.636;25.582;2024-03-07T13:40:49;94649.86;;;9.72;35.01
84024;BME280;74109;45.636;25.582;2024-03-07T13:43:23;94653.05;;;9.65;35.08
84024;BME280;74109;45.636;25.582;2024-03-07T13:45:53;94650.77;;;9.60;35.21
84024;BME280;74109;45.636;25.582;2024-03-07T13:48:23;94651.48;;;9.59;35.02
84024;BME280;74109;45.636;25.582;2024-03-07T13:50:55;94660.89;;;9.58;35.30
84024;BME280;74109;45.636;25.582;2024-03-07T13:53:27;94657.36;;;9.53;35.29
84024;BME280;74109;45.636;25.582;2024-03-07T13:59:31;94657.20;;;9.49;35.39
84024;BME280;74109;45.636;25.582;2024-03-07T14:08:28;94655.59;;;9.43;35.69
84024;BME280;74109;45.636;25.582;2024-03-07T14:16:50;94661.75;;;9.57;35.66
84024;BME280;74109;45.636;25.582;2024-03-07T14:22:44;94660.55;;;9.34;35.97
84024;BME280;74109;45.636;25.582;2024-03-07T14:25:46;94662.30;;;9.32;36.09
84024;BME280;74109;45.636;25.582;2024-03-07T14:30:55;94662.61;;;9.21;36.23
84024;BME280;74109;45.636;25.582;2024-03-07T14:33:46;94664.03;;;9.11;36.61
84024;BME280;74109;45.636;25.582;2024-03-07T14:36:17;94662.27;;;9.10;36.48
84024;BME280;74109;45.636;25.582;2024-03-07T14:38:57;94659.83;;;9.09;36.68
84024;BME280;74109;45.636;25.582;2024-03-07T14:42:06;94663.61;;;8.98;36.53
84024;BME280;74109;45.636;25.582;2024-03-07T14:44:38;94670.10;;;8.92;36.97
84024;BME280;74109;45.636;25.582;2024-03-07T14:47:09;94670.97;;;8.92;37.03
84024;BME280;74109;45.636;25.582;2024-03-07T14:49:39;94672.00;;;8.88;36.89
84024;BME280;74109;45.636;25.582;2024-03-07T14:52:07;94675.71;;;8.81;37.24
84024;BME280;74109;45.636;25.582;2024-03-07T14:54:39;94678.09;;;8.76;37.43
84024;BME280;74109;45.636;25.582;2024-03-07T14:57:09;94678.48;;;8.75;37.34
84024;BME280;74109;45.636;25.582;2024-03-07T14:59:41;94680.77;;;8.72;37.33
84024;BME280;74109;45.636;25.582;2024-03-07T15:02:12;94680.31;;;8.65;37.68
84024;BME280;74109;45.636;25.582;2024-03-07T15:04:42;94682.88;;;8.61;37.78
84024;BME280;74109;45.636;25.582;2024-03-07T15:07:11;94683.52;;;8.52;37.72
84024;BME280;74109;45.636;25.582;2024-03-07T15:09:39;94681.30;;;8.42;37.85
84024;BME280;74109;45.636;25.582;2024-03-07T15:12:08;94684.55;;;8.32;38.13
84024;BME280;74109;45.636;25.582;2024-03-07T15:14:37;94686.40;;;8.24;38.30
84024;BME280;74109;45.636;25.582;2024-03-07T15:17:08;94685.35;;;8.23;38.41
84024;BME280;74109;45.636;25.582;2024-03-07T15:19:37;94685.23;;;8.20;38.23
84024;BME280;74109;45.636;25.582;2024-03-07T15:22:05;94686.63;;;8.13;38.51
84024;BME280;74109;45.636;25.582;2024-03-07T15:24:34;94684.67;;;8.08;38.43
84024;BME280;74109;45.636;25.582;2024-03-07T15:27:04;94688.37;;;7.98;38.93
84024;BME280;74109;45.636;25.582;2024-03-07T15:29:33;94688.43;;;7.95;38.66
84024;BME280;74109;45.636;25.582;2024-03-07T15:32:02;94689.27;;;7.90;38.75